sensor_id;sensor_type;location;lat;lon;timestamp;P1;durP1;ratioP1;P2;durP2;ratioP2
57325;SDS011;43161;50.950;18.224;2023-08-21T00:01:33;23.90;;;14.40;;
57325;SDS011;43161;50.950;18.224;2023-08-21T00:03:59;23.20;;;13.90;;
57325;SDS011;43161;50.950;18.224;2023-08-21T00:06:25;22.40;;;13.90;;
57325;SDS011;43161;50.950;18.224;2023-08-21T00:08:50;23.50;;;14.30;;
57325;SDS011;43161;50.950;18.224;2023-08-21T00:11:16;24.00;;;13.90;;
57325;SDS011;43161;50.950;18.224;2023-08-21T00:13:42;19.90;;;14.80;;
57325;SDS011;43161;50.950;18.224;2023-08-21T00:16:12;22.70;;;15.60;;
57325;SDS011;43161;50.950;18.224;2023-08-21T00:18:38;23.20;;;15.20;;
57325;SDS011;43161;50.950;18.224;2023-08-21T00:21:04;22.00;;;15.40;;
57325;SDS011;43161;50.950;18.224;2023-08-21T00:23:30;23.40;;;16.00;;
57325;SDS011;43161;50.950;18.224;2023-08-21T00:25:56;23.00;;;15.80;;
57325;SDS011;43161;50.950;18.224;2023-08-21T00:28:22;23.80;;;16.40;;
57325;SDS011;43161;50.950;18.224;2023-08-21T00:30:48;22.40;;;16.60;;
57325;SDS011;43161;50.950;18.224;2023-08-21T00:33:13;23.00;;;15.60;;
57325;SDS011;43161;50.950;18.224;2023-08-21T00:35:39;23.40;;;16.60;;
57325;SDS011;43161;50.950;18.224;2023-08-21T00:38:05;24.90;;;17.50;;
57325;SDS011;43161;50.950;18.224;2023-08-21T00:40:31;24.70;;;16.50;;
57325;SDS011;43161;50.950;18.224;2023-08-21T00:42:57;22.90;;;16.60;;
57325;SDS011;43161;50.950;18.224;2023-08-21T00:45:22;25.40;;;18.00;;
57325;SDS011;43161;50.950;18.224;2023-08-21T00:47:48;23.20;;;17.50;;
57325;SDS011;43161;50.950;18.224;2023-08-21T00:50:14;24.80;;;18.00;;
57325;SDS011;43161;50.950;18.224;2023-08-21T00:52:40;24.80;;;17.60;;
57325;SDS011;43161;50.950;18.224;2023-08-21T00:55:08;28.50;;;18.70;;
57325;SDS011;43161;50.950;18.224;2023-08-21T00:57:35;25.90;;;19.50;;
57325;SDS011;43161;50.950;18.224;2023-08-21T01:00:02;26.90;;;19.90;;
57325;SDS011;43161;50.950;18.224;2023-08-21T01:02:29;28.50;;;20.70;;
57325;SDS011;43161;50.950;18.224;2023-08-21T01:04:55;28.10;;;20.60;;
57325;SDS011;43161;50.950;18.224;2023-08-21T01:07:21;29.10;;;21.70;;
57325;SDS011;43161;50.950;18.224;2023-08-21T01:09:51;28.70;;;21.80;;
57325;SDS011;43161;50.950;18.224;2023-08-21T01:15:33;30.80;;;21.80;;
57325;SDS011;43161;50.950;18.224;2023-08-21T01:17:59;29.60;;;20.70;;
57325;SDS011;43161;50.950;18.224;2023-08-21T01:20:25;30.80;;;20.80;;
57325;SDS011;43161;50.950;18.224;2023-08-21T01:22:51;29.10;;;20.50;;
57325;SDS011;43161;50.950;18.224;2023-08-21T01:25:16;28.90;;;21.00;;
57325;SDS011;43161;50.950;18.224;2023-08-21T01:27:44;26.50;;;19.30;;
57325;SDS011;43161;50.950;18.224;2023-08-21T01:30:13;28.30;;;20.30;;
57325;SDS011;43161;50.950;18.224;2023-08-21T01:32:48;34.50;;;21.20;;
57325;SDS011;43161;50.950;18.224;2023-08-21T01:35:18;28.60;;;21.50;;
57325;SDS011;43161;50.950;18.224;2023-08-21T01:37:45;29.80;;;21.60;;
57325;SDS011;43161;50.950;18.224;2023-08-21T01:40:11;29.30;;;20.90;;
57325;SDS011;43161;50.950;18.224;2023-08-21T01:42:37;28.20;;;21.00;;
57325;SDS011;43161;50.950;18.224;2023-08-21T01:45:03;28.60;;;20.90;;
57325;SDS011;43161;50.950;18.224;2023-08-21T01:47:29;28.80;;;20.10;;
57325;SDS011;43161;50.950;18.224;2023-08-21T01:49:54;29.40;;;20.10;;
57325;SDS011;43161;50.950;18.224;2023-08-21T01:52:20;31.00;;;21.10;;
57325;SDS011;43161;50.950;18.224;2023-08-21T01:54:47;30.80;;;21.40;;
57325;SDS011;43161;50.950;18.224;2023-08-21T01:57:14;28.30;;;21.20;;
57325;SDS011;43161;50.950;18.224;2023-08-21T01:59:40;31.10;;;21.40;;
57325;SDS011;43161;50.950;18.224;2023-08-21T02:02:05;32.30;;;22.70;;
57325;SDS011;43161;50.950;18.224;2023-08-21T02:04:31;30.40;;;21.70;;
57325;SDS011;43161;50.950;18.224;2023-08-21T02:06:56;30.00;;;21.50;;
57325;SDS011;43161;50.950;18.224;2023-08-21T02:09:22;28.40;;;21.10;;
57325;SDS011;43161;50.950;18.224;2023-08-21T02:11:48;30.70;;;20.80;;
57325;SDS011;43161;50.950;18.224;2023-08-21T02:14:14;30.60;;;20.50;;
57325;SDS011;43161;50.950;18.224;2023-08-21T02:16:39;29.90;;;21.30;;
57325;SDS011;43161;50.950;18.224;2023-08-21T02:19:05;29.50;;;21.50;;
57325;SDS011;43161;50.950;18.224;2023-08-21T02:21:31;29.70;;;21.40;;
57325;SDS011;43161;50.950;18.224;2023-08-21T02:23:57;30.20;;;20.50;;
57325;SDS011;43161;50.950;18.224;2023-08-21T02:26:22;29.20;;;20.80;;
57325;SDS011;43161;50.950;18.224;2023-08-21T02:28:48;28.80;;;20.40;;
57325;SDS011;43161;50.950;18.224;2023-08-21T02:31:14;31.20;;;21.00;;
57325;SDS011;43161;50.950;18.224;2023-08-21T02:33:39;30.70;;;21.20;;
57325;SDS011;43161;50.950;18.224;2023-08-21T02:36:05;29.60;;;20.60;;
57325;SDS011;43161;50.950;18.224;2023-08-21T02:38:32;28.90;;;21.50;;
57325;SDS011;43161;50.950;18.224;2023-08-21T02:40:58;29.60;;;20.60;;
57325;SDS011;43161;50.950;18.224;2023-08-21T02:43:23;28.80;;;19.80;;
57325;SDS011;43161;50.950;18.224;2023-08-21T02:45:49;27.70;;;19.40;;
57325;SDS011;43161;50.950;18.224;2023-08-21T02:48:15;27.90;;;19.60;;
57325;SDS011;43161;50.950;18.224;2023-08-21T02:50:41;29.20;;;20.50;;
57325;SDS011;43161;50.950;18.224;2023-08-21T02:53:07;29.50;;;20.90;;
57325;SDS011;43161;50.950;18.224;2023-08-21T02:55:33;27.70;;;20.10;;
57325;SDS011;43161;50.950;18.224;2023-08-21T02:57:59;26.90;;;18.60;;
57325;SDS011;43161;50.950;18.224;2023-08-21T03:00:24;26.00;;;18.60;;
57325;SDS011;43161;50.950;18.224;2023-08-21T03:02:50;27.90;;;19.30;;
57325;SDS011;43161;50.950;18.224;2023-08-21T03:05:16;29.30;;;19.40;;
57325;SDS011;43161;50.950;18.224;2023-08-21T03:07:42;27.90;;;20.50;;
57325;SDS011;43161;50.950;18.224;2023-08-21T03:10:08;26.60;;;19.50;;
57325;SDS011;43161;50.950;18.224;2023-08-21T03:12:34;29.60;;;19.90;;
57325;SDS011;43161;50.950;18.224;2023-08-21T03:14:59;28.40;;;19.60;;
57325;SDS011;43161;50.950;18.224;2023-08-21T03:17:25;29.10;;;20.10;;
57325;SDS011;43161;50.950;18.224;2023-08-21T03:19:51;28.50;;;21.20;;
57325;SDS011;43161;50.950;18.224;2023-08-21T03:22:16;30.40;;;21.00;;
57325;SDS011;43161;50.950;18.224;2023-08-21T03:24:42;28.20;;;19.80;;
57325;SDS011;43161;50.950;18.224;2023-08-21T03:27:07;30.00;;;20.20;;
57325;SDS011;43161;50.950;18.224;2023-08-21T03:29:33;27.40;;;19.80;;
57325;SDS011;43161;50.950;18.224;2023-08-21T03:31:59;28.80;;;19.90;;
57325;SDS011;43161;50.950;18.224;2023-08-21T03:34:25;27.50;;;19.70;;
57325;SDS011;43161;50.950;18.224;2023-08-21T03:36:51;26.40;;;18.90;;
57325;SDS011;43161;50.950;18.224;2023-08-21T03:39:16;26.70;;;18.50;;
57325;SDS011;43161;50.950;18.224;2023-08-21T03:41:42;22.90;;;16.90;;
57325;SDS011;43161;50.950;18.224;2023-08-21T03:44:08;23.60;;;17.20;;
57325;SDS011;43161;50.950;18.224;2023-08-21T03:46:34;23.20;;;16.70;;
57325;SDS011;43161;50.950;18.224;2023-08-21T03:48:59;25.00;;;17.40;;
57325;SDS011;43161;50.950;18.224;2023-08-21T03:51:25;26.40;;;18.60;;
57325;SDS011;43161;50.950;18.224;2023-08-21T03:53:51;29.10;;;20.50;;
57325;SDS011;43161;50.950;18.224;2023-08-21T03:56:17;27.20;;;20.00;;
57325;SDS011;43161;50.950;18.224;2023-08-21T03:58:43;25.30;;;17.40;;
57325;SDS011;43161;50.950;18.224;2023-08-21T04:01:09;24.90;;;17.80;;
57325;SDS011;43161;50.950;18.224;2023-08-21T04:03:35;31.00;;;19.50;;
57325;SDS011;43161;50.950;18.224;2023-08-21T04:06:01;26.90;;;19.40;;
57325;SDS011;43161;50.950;18.224;2023-08-21T04:08:27;28.70;;;20.10;;
57325;SDS011;43161;50.950;18.224;2023-08-21T04:10:52;30.80;;;20.70;;
57325;SDS011;43161;50.950;18.224;2023-08-21T04:13:18;28.50;;;19.80;;
57325;SDS011;43161;50.950;18.224;2023-08-21T04:15:45;29.50;;;21.00;;
57325;SDS011;43161;50.950;18.224;2023-08-21T04:18:11;32.30;;;19.90;;
57325;SDS011;43161;50.950;18.224;2023-08-21T04:20:37;32.80;;;21.70;;
57325;SDS011;43161;50.950;18.224;2023-08-21T04:23:03;30.30;;;22.00;;
57325;SDS011;43161;50.950;18.224;2023-08-21T04:25:29;30.30;;;21.70;;
57325;SDS011;43161;50.950;18.224;2023-08-21T04:27:55;30.30;;;22.10;;
57325;SDS011;43161;50.950;18.224;2023-08-21T04:30:21;31.00;;;21.00;;
57325;SDS011;43161;50.950;18.224;2023-08-21T04:32:47;31.50;;;21.00;;
57325;SDS011;43161;50.950;18.224;2023-08-21T04:35:13;27.80;;;19.10;;
57325;SDS011;43161;50.950;18.224;2023-08-21T04:37:45;29.20;;;19.10;;
57325;SDS011;43161;50.950;18.224;2023-08-21T04:40:12;25.80;;;18.10;;
57325;SDS011;43161;50.950;18.224;2023-08-21T04:42:38;25.90;;;18.70;;
57325;SDS011;43161;50.950;18.224;2023-08-21T04:45:04;28.50;;;18.90;;
57325;SDS011;43161;50.950;18.224;2023-08-21T04:47:31;27.40;;;18.50;;
57325;SDS011;43161;50.950;18.224;2023-08-21T04:49:57;26.30;;;18.30;;
57325;SDS011;43161;50.950;18.224;2023-08-21T04:52:23;27.90;;;19.50;;
57325;SDS011;43161;50.950;18.224;2023-08-21T04:54:50;26.70;;;19.10;;
57325;SDS011;43161;50.950;18.224;2023-08-21T04:57:16;28.10;;;19.80;;
57325;SDS011;43161;50.950;18.224;2023-08-21T04:59:42;28.00;;;19.50;;
57325;SDS011;43161;50.950;18.224;2023-08-21T05:02:09;28.50;;;20.20;;
57325;SDS011;43161;50.950;18.224;2023-08-21T05:04:36;27.90;;;18.80;;
57325;SDS011;43161;50.950;18.224;2023-08-21T05:07:02;27.50;;;19.70;;
57325;SDS011;43161;50.950;18.224;2023-08-21T05:09:28;33.10;;;20.70;;
57325;SDS011;43161;50.950;18.224;2023-08-21T05:11:54;30.00;;;22.10;;
57325;SDS011;43161;50.950;18.224;2023-08-21T05:14:20;32.10;;;21.90;;
57325;SDS011;43161;50.950;18.224;2023-08-21T05:16:46;33.80;;;21.50;;
57325;SDS011;43161;50.950;18.224;2023-08-21T05:19:12;31.00;;;21.20;;
57325;SDS011;43161;50.950;18.224;2023-08-21T05:21:39;33.50;;;21.70;;
57325;SDS011;43161;50.950;18.224;2023-08-21T05:24:05;32.20;;;23.10;;
57325;SDS011;43161;50.950;18.224;2023-08-21T05:26:31;31.50;;;21.80;;
57325;SDS011;43161;50.950;18.224;2023-08-21T05:28:56;32.80;;;23.30;;
57325;SDS011;43161;50.950;18.224;2023-08-21T05:31:22;31.10;;;21.30;;
57325;SDS011;43161;50.950;18.224;2023-08-21T05:33:48;27.60;;;20.70;;
57325;SDS011;43161;50.950;18.224;2023-08-21T05:36:13;27.90;;;20.30;;
57325;SDS011;43161;50.950;18.224;2023-08-21T05:38:39;30.00;;;20.10;;
57325;SDS011;43161;50.950;18.224;2023-08-21T05:41:05;28.40;;;19.30;;
57325;SDS011;43161;50.950;18.224;2023-08-21T05:43:30;26.90;;;18.80;;
57325;SDS011;43161;50.950;18.224;2023-08-21T05:45:56;30.30;;;19.50;;
57325;SDS011;43161;50.950;18.224;2023-08-21T05:48:22;25.50;;;17.70;;
57325;SDS011;43161;50.950;18.224;2023-08-21T05:50:51;22.90;;;15.80;;
57325;SDS011;43161;50.950;18.224;2023-08-21T05:53:17;25.00;;;15.70;;
57325;SDS011;43161;50.950;18.224;2023-08-21T05:55:43;21.00;;;14.20;;
57325;SDS011;43161;50.950;18.224;2023-08-21T05:58:09;21.80;;;14.70;;
57325;SDS011;43161;50.950;18.224;2023-08-21T06:00:35;21.80;;;14.50;;
57325;SDS011;43161;50.950;18.224;2023-08-21T06:03:01;20.00;;;13.30;;
57325;SDS011;43161;50.950;18.224;2023-08-21T06:05:27;20.80;;;13.60;;
57325;SDS011;43161;50.950;18.224;2023-08-21T06:07:52;20.30;;;13.10;;
57325;SDS011;43161;50.950;18.224;2023-08-21T06:10:18;20.70;;;13.80;;
57325;SDS011;43161;50.950;18.224;2023-08-21T06:12:43;19.00;;;12.30;;
57325;SDS011;43161;50.950;18.224;2023-08-21T06:15:09;18.90;;;12.00;;
57325;SDS011;43161;50.950;18.224;2023-08-21T06:17:36;18.90;;;12.10;;
57325;SDS011;43161;50.950;18.224;2023-08-21T06:20:03;20.00;;;12.10;;
57325;SDS011;43161;50.950;18.224;2023-08-21T06:22:34;17.50;;;11.50;;
57325;SDS011;43161;50.950;18.224;2023-08-21T06:25:03;16.50;;;10.90;;
57325;SDS011;43161;50.950;18.224;2023-08-21T06:27:30;15.50;;;9.20;;
57325;SDS011;43161;50.950;18.224;2023-08-21T06:29:56;15.50;;;9.60;;
57325;SDS011;43161;50.950;18.224;2023-08-21T06:32:21;13.40;;;8.30;;
57325;SDS011;43161;50.950;18.224;2023-08-21T06:34:47;15.70;;;8.80;;
57325;SDS011;43161;50.950;18.224;2023-08-21T06:37:13;14.30;;;8.60;;
57325;SDS011;43161;50.950;18.224;2023-08-21T06:39:39;15.30;;;8.70;;
57325;SDS011;43161;50.950;18.224;2023-08-21T06:42:05;15.20;;;8.80;;
57325;SDS011;43161;50.950;18.224;2023-08-21T06:44:30;13.90;;;8.30;;
57325;SDS011;43161;50.950;18.224;2023-08-21T06:46:56;14.80;;;8.70;;
57325;SDS011;43161;50.950;18.224;2023-08-21T06:49:22;13.20;;;7.50;;
57325;SDS011;43161;50.950;18.224;2023-08-21T06:51:48;13.60;;;7.30;;
57325;SDS011;43161;50.950;18.224;2023-08-21T06:54:15;14.00;;;7.70;;
57325;SDS011;43161;50.950;18.224;2023-08-21T06:56:41;12.10;;;7.40;;
57325;SDS011;43161;50.950;18.224;2023-08-21T06:59:07;13.10;;;7.40;;
57325;SDS011;43161;50.950;18.224;2023-08-21T07:01:32;14.20;;;7.30;;
57325;SDS011;43161;50.950;18.224;2023-08-21T07:03:58;15.40;;;8.80;;
57325;SDS011;43161;50.950;18.224;2023-08-21T07:06:24;13.70;;;7.80;;
57325;SDS011;43161;50.950;18.224;2023-08-21T07:08:53;12.60;;;7.30;;
57325;SDS011;43161;50.950;18.224;2023-08-21T07:11:19;12.20;;;6.90;;
57325;SDS011;43161;50.950;18.224;2023-08-21T07:13:45;14.10;;;7.90;;
57325;SDS011;43161;50.950;18.224;2023-08-21T07:16:11;14.20;;;8.30;;
57325;SDS011;43161;50.950;18.224;2023-08-21T07:18:37;12.70;;;6.60;;
57325;SDS011;43161;50.950;18.224;2023-08-21T07:21:03;13.00;;;7.60;;
57325;SDS011;43161;50.950;18.224;2023-08-21T07:23:30;13.70;;;8.20;;
57325;SDS011;43161;50.950;18.224;2023-08-21T07:25:57;15.50;;;9.80;;
57325;SDS011;43161;50.950;18.224;2023-08-21T07:28:24;13.30;;;7.90;;
57325;SDS011;43161;50.950;18.224;2023-08-21T07:30:56;13.50;;;7.50;;
57325;SDS011;43161;50.950;18.224;2023-08-21T07:33:23;14.20;;;8.10;;
57325;SDS011;43161;50.950;18.224;2023-08-21T07:36:00;12.00;;;6.70;;
57325;SDS011;43161;50.950;18.224;2023-08-21T07:38:27;11.20;;;6.50;;
57325;SDS011;43161;50.950;18.224;2023-08-21T07:43:35;12.20;;;6.80;;
57325;SDS011;43161;50.950;18.224;2023-08-21T07:46:05;12.30;;;6.20;;
57325;SDS011;43161;50.950;18.224;2023-08-21T07:48:32;13.10;;;6.00;;
57325;SDS011;43161;50.950;18.224;2023-08-21T07:50:58;12.50;;;6.70;;
57325;SDS011;43161;50.950;18.224;2023-08-21T07:53:25;12.20;;;6.80;;
57325;SDS011;43161;50.950;18.224;2023-08-21T07:55:51;11.60;;;6.50;;
57325;SDS011;43161;50.950;18.224;2023-08-21T07:58:17;10.90;;;5.70;;
57325;SDS011;43161;50.950;18.224;2023-08-21T08:00:44;10.40;;;5.60;;
57325;SDS011;43161;50.950;18.224;2023-08-21T08:03:10;10.40;;;5.20;;
57325;SDS011;43161;50.950;18.224;2023-08-21T08:05:36;11.90;;;5.50;;
57325;SDS011;43161;50.950;18.224;2023-08-21T08:08:02;10.30;;;5.60;;
57325;SDS011;43161;50.950;18.224;2023-08-21T08:10:28;10.80;;;4.90;;
57325;SDS011;43161;50.950;18.224;2023-08-21T08:12:54;11.30;;;5.40;;
57325;SDS011;43161;50.950;18.224;2023-08-21T08:15:20;10.90;;;5.10;;
57325;SDS011;43161;50.950;18.224;2023-08-21T08:17:46;11.00;;;5.70;;
57325;SDS011;43161;50.950;18.224;2023-08-21T08:20:12;10.70;;;5.00;;
57325;SDS011;43161;50.950;18.224;2023-08-21T08:22:41;12.40;;;5.90;;
57325;SDS011;43161;50.950;18.224;2023-08-21T08:25:07;13.30;;;6.20;;
57325;SDS011;43161;50.950;18.224;2023-08-21T08:27:34;9.50;;;5.00;;
57325;SDS011;43161;50.950;18.224;2023-08-21T08:29:59;10.30;;;5.30;;
57325;SDS011;43161;50.950;18.224;2023-08-21T08:32:25;10.80;;;5.30;;
57325;SDS011;43161;50.950;18.224;2023-08-21T08:34:52;10.70;;;5.30;;
57325;SDS011;43161;50.950;18.224;2023-08-21T08:37:18;10.60;;;5.20;;
57325;SDS011;43161;50.950;18.224;2023-08-21T08:39:45;11.20;;;5.30;;
57325;SDS011;43161;50.950;18.224;2023-08-21T08:42:12;10.70;;;5.50;;
57325;SDS011;43161;50.950;18.224;2023-08-21T08:44:39;10.10;;;4.90;;
57325;SDS011;43161;50.950;18.224;2023-08-21T08:47:15;11.10;;;5.10;;
57325;SDS011;43161;50.950;18.224;2023-08-21T08:49:42;11.20;;;4.90;;
57325;SDS011;43161;50.950;18.224;2023-08-21T08:52:09;10.60;;;4.70;;
57325;SDS011;43161;50.950;18.224;2023-08-21T08:54:35;11.10;;;4.80;;
57325;SDS011;43161;50.950;18.224;2023-08-21T08:57:03;10.50;;;4.90;;
57325;SDS011;43161;50.950;18.224;2023-08-21T08:59:32;11.90;;;5.50;;
57325;SDS011;43161;50.950;18.224;2023-08-21T09:01:58;9.80;;;5.00;;
57325;SDS011;43161;50.950;18.224;2023-08-21T09:04:24;9.50;;;4.70;;
57325;SDS011;43161;50.950;18.224;2023-08-21T09:06:50;9.80;;;5.00;;
57325;SDS011;43161;50.950;18.224;2023-08-21T09:09:16;11.10;;;4.90;;
57325;SDS011;43161;50.950;18.224;2023-08-21T09:11:42;11.10;;;5.00;;
57325;SDS011;43161;50.950;18.224;2023-08-21T09:14:10;9.90;;;4.90;;
57325;SDS011;43161;50.950;18.224;2023-08-21T09:16:37;11.50;;;4.80;;
57325;SDS011;43161;50.950;18.224;2023-08-21T09:19:03;11.20;;;5.00;;
57325;SDS011;43161;50.950;18.224;2023-08-21T09:21:29;10.10;;;5.50;;
57325;SDS011;43161;50.950;18.224;2023-08-21T09:23:58;11.70;;;5.40;;
57325;SDS011;43161;50.950;18.224;2023-08-21T09:26:25;11.10;;;5.30;;
57325;SDS011;43161;50.950;18.224;2023-08-21T09:28:52;10.20;;;4.90;;
57325;SDS011;43161;50.950;18.224;2023-08-21T09:31:22;10.10;;;4.60;;
57325;SDS011;43161;50.950;18.224;2023-08-21T09:33:56;10.30;;;4.30;;
57325;SDS011;43161;50.950;18.224;2023-08-21T09:36:23;12.50;;;5.40;;
57325;SDS011;43161;50.950;18.224;2023-08-21T09:38:50;9.40;;;4.60;;
57325;SDS011;43161;50.950;18.224;2023-08-21T09:41:21;9.20;;;4.70;;
57325;SDS011;43161;50.950;18.224;2023-08-21T09:43:47;9.40;;;4.60;;
57325;SDS011;43161;50.950;18.224;2023-08-21T09:46:14;9.90;;;5.00;;
57325;SDS011;43161;50.950;18.224;2023-08-21T09:48:42;9.70;;;5.10;;
57325;SDS011;43161;50.950;18.224;2023-08-21T09:51:09;12.50;;;5.50;;
57325;SDS011;43161;50.950;18.224;2023-08-21T09:53:35;10.80;;;5.50;;
57325;SDS011;43161;50.950;18.224;2023-08-21T09:56:01;13.20;;;5.70;;
57325;SDS011;43161;50.950;18.224;2023-08-21T09:58:28;10.80;;;5.80;;
57325;SDS011;43161;50.950;18.224;2023-08-21T10:00:56;11.70;;;5.70;;
57325;SDS011;43161;50.950;18.224;2023-08-21T10:03:23;10.20;;;5.40;;
57325;SDS011;43161;50.950;18.224;2023-08-21T10:05:49;10.00;;;5.00;;
57325;SDS011;43161;50.950;18.224;2023-08-21T10:08:15;11.30;;;4.70;;
57325;SDS011;43161;50.950;18.224;2023-08-21T10:10:43;11.60;;;4.80;;
57325;SDS011;43161;50.950;18.224;2023-08-21T10:13:09;10.40;;;4.70;;
57325;SDS011;43161;50.950;18.224;2023-08-21T10:15:36;12.30;;;5.20;;
57325;SDS011;43161;50.950;18.224;2023-08-21T10:20:45;11.10;;;5.40;;
57325;SDS011;43161;50.950;18.224;2023-08-21T10:23:23;10.50;;;5.20;;
57325;SDS011;43161;50.950;18.224;2023-08-21T10:25:58;11.70;;;5.90;;
57325;SDS011;43161;50.950;18.224;2023-08-21T10:28:24;10.10;;;5.40;;
57325;SDS011;43161;50.950;18.224;2023-08-21T10:30:50;12.10;;;5.80;;
57325;SDS011;43161;50.950;18.224;2023-08-21T10:33:17;10.70;;;5.70;;
57325;SDS011;43161;50.950;18.224;2023-08-21T10:35:44;11.20;;;5.70;;
57325;SDS011;43161;50.950;18.224;2023-08-21T10:38:14;10.30;;;6.00;;
57325;SDS011;43161;50.950;18.224;2023-08-21T10:46:14;10.30;;;5.10;;
57325;SDS011;43161;50.950;18.224;2023-08-21T10:48:41;11.60;;;5.90;;
57325;SDS011;43161;50.950;18.224;2023-08-21T10:51:07;9.80;;;5.50;;
57325;SDS011;43161;50.950;18.224;2023-08-21T10:53:34;9.50;;;4.70;;
57325;SDS011;43161;50.950;18.224;2023-08-21T10:56:03;9.70;;;4.80;;
57325;SDS011;43161;50.950;18.224;2023-08-21T11:01:13;9.90;;;4.90;;
57325;SDS011;43161;50.950;18.224;2023-08-21T11:03:39;9.70;;;4.80;;
57325;SDS011;43161;50.950;18.224;2023-08-21T11:06:06;9.50;;;4.70;;
57325;SDS011;43161;50.950;18.224;2023-08-21T11:08:33;11.20;;;4.90;;
57325;SDS011;43161;50.950;18.224;2023-08-21T11:11:01;10.70;;;4.70;;
57325;SDS011;43161;50.950;18.224;2023-08-21T11:13:27;9.40;;;4.60;;
57325;SDS011;43161;50.950;18.224;2023-08-21T11:16:00;11.00;;;5.20;;
57325;SDS011;43161;50.950;18.224;2023-08-21T11:18:32;9.80;;;4.90;;
57325;SDS011;43161;50.950;18.224;2023-08-21T11:23:41;8.90;;;4.10;;
57325;SDS011;43161;50.950;18.224;2023-08-21T11:26:11;10.80;;;4.60;;
57325;SDS011;43161;50.950;18.224;2023-08-21T11:28:37;9.70;;;4.30;;
57325;SDS011;43161;50.950;18.224;2023-08-21T11:31:05;9.10;;;4.60;;
57325;SDS011;43161;50.950;18.224;2023-08-21T11:33:32;10.00;;;4.70;;
57325;SDS011;43161;50.950;18.224;2023-08-21T11:35:57;9.20;;;4.50;;
57325;SDS011;43161;50.950;18.224;2023-08-21T11:38:26;10.40;;;4.70;;
57325;SDS011;43161;50.950;18.224;2023-08-21T11:46:07;9.30;;;4.60;;
57325;SDS011;43161;50.950;18.224;2023-08-21T11:48:38;9.60;;;4.20;;
57325;SDS011;43161;50.950;18.224;2023-08-21T11:51:04;8.60;;;4.10;;
57325;SDS011;43161;50.950;18.224;2023-08-21T11:53:33;8.60;;;4.20;;
57325;SDS011;43161;50.950;18.224;2023-08-21T11:56:01;8.90;;;4.10;;
57325;SDS011;43161;50.950;18.224;2023-08-21T11:58:28;11.10;;;4.40;;
57325;SDS011;43161;50.950;18.224;2023-08-21T12:01:01;10.40;;;3.90;;
57325;SDS011;43161;50.950;18.224;2023-08-21T12:03:29;7.80;;;3.40;;
57325;SDS011;43161;50.950;18.224;2023-08-21T12:05:56;10.00;;;4.10;;
57325;SDS011;43161;50.950;18.224;2023-08-21T12:08:22;9.60;;;4.20;;
57325;SDS011;43161;50.950;18.224;2023-08-21T12:10:51;10.40;;;4.00;;
57325;SDS011;43161;50.950;18.224;2023-08-21T12:13:19;8.40;;;4.00;;
57325;SDS011;43161;50.950;18.224;2023-08-21T12:15:45;8.30;;;3.80;;
57325;SDS011;43161;50.950;18.224;2023-08-21T12:18:12;8.70;;;3.90;;
57325;SDS011;43161;50.950;18.224;2023-08-21T12:20:37;9.90;;;3.90;;
57325;SDS011;43161;50.950;18.224;2023-08-21T12:23:04;8.10;;;3.60;;
57325;SDS011;43161;50.950;18.224;2023-08-21T12:25:29;8.80;;;3.90;;
57325;SDS011;43161;50.950;18.224;2023-08-21T12:27:57;9.00;;;4.30;;
57325;SDS011;43161;50.950;18.224;2023-08-21T12:30:23;9.30;;;3.90;;
57325;SDS011;43161;50.950;18.224;2023-08-21T12:32:48;8.80;;;4.30;;
57325;SDS011;43161;50.950;18.224;2023-08-21T12:35:14;8.20;;;4.10;;
57325;SDS011;43161;50.950;18.224;2023-08-21T12:37:40;8.90;;;4.10;;
57325;SDS011;43161;50.950;18.224;2023-08-21T12:40:06;9.30;;;4.50;;
57325;SDS011;43161;50.950;18.224;2023-08-21T12:42:34;9.70;;;4.20;;
57325;SDS011;43161;50.950;18.224;2023-08-21T12:44:59;9.60;;;4.30;;
57325;SDS011;43161;50.950;18.224;2023-08-21T12:47:25;9.00;;;4.40;;
57325;SDS011;43161;50.950;18.224;2023-08-21T12:49:51;8.30;;;3.50;;
57325;SDS011;43161;50.950;18.224;2023-08-21T12:52:16;8.70;;;3.80;;
57325;SDS011;43161;50.950;18.224;2023-08-21T12:54:42;10.60;;;4.20;;
57325;SDS011;43161;50.950;18.224;2023-08-21T12:57:11;8.70;;;3.90;;
57325;SDS011;43161;50.950;18.224;2023-08-21T12:59:37;8.40;;;3.60;;
57325;SDS011;43161;50.950;18.224;2023-08-21T13:02:03;8.00;;;3.40;;
57325;SDS011;43161;50.950;18.224;2023-08-21T13:04:29;9.20;;;3.70;;
57325;SDS011;43161;50.950;18.224;2023-08-21T13:06:57;8.60;;;3.70;;
57325;SDS011;43161;50.950;18.224;2023-08-21T13:09:23;10.30;;;4.30;;
57325;SDS011;43161;50.950;18.224;2023-08-21T13:11:53;9.20;;;3.70;;
57325;SDS011;43161;50.950;18.224;2023-08-21T13:14:19;7.60;;;3.50;;
57325;SDS011;43161;50.950;18.224;2023-08-21T13:16:45;8.30;;;3.50;;
57325;SDS011;43161;50.950;18.224;2023-08-21T13:19:11;9.10;;;3.70;;
57325;SDS011;43161;50.950;18.224;2023-08-21T13:21:37;8.50;;;3.50;;
57325;SDS011;43161;50.950;18.224;2023-08-21T13:24:03;9.00;;;3.40;;
57325;SDS011;43161;50.950;18.224;2023-08-21T13:26:30;8.20;;;3.20;;
57325;SDS011;43161;50.950;18.224;2023-08-21T13:28:56;8.10;;;3.50;;
57325;SDS011;43161;50.950;18.224;2023-08-21T13:31:22;7.70;;;3.50;;
57325;SDS011;43161;50.950;18.224;2023-08-21T13:33:48;9.00;;;3.70;;
57325;SDS011;43161;50.950;18.224;2023-08-21T13:36:15;9.70;;;4.00;;
57325;SDS011;43161;50.950;18.224;2023-08-21T13:38:42;8.70;;;3.50;;
57325;SDS011;43161;50.950;18.224;2023-08-21T13:41:08;8.00;;;3.30;;
57325;SDS011;43161;50.950;18.224;2023-08-21T13:43:34;8.30;;;3.90;;
57325;SDS011;43161;50.950;18.224;2023-08-21T13:46:01;8.30;;;3.80;;
57325;SDS011;43161;50.950;18.224;2023-08-21T13:48:29;8.40;;;3.70;;
57325;SDS011;43161;50.950;18.224;2023-08-21T13:50:56;8.70;;;3.80;;
57325;SDS011;43161;50.950;18.224;2023-08-21T13:53:21;9.20;;;4.00;;
57325;SDS011;43161;50.950;18.224;2023-08-21T13:55:47;9.00;;;3.70;;
57325;SDS011;43161;50.950;18.224;2023-08-21T13:58:13;9.80;;;3.90;;
57325;SDS011;43161;50.950;18.224;2023-08-21T14:00:39;8.20;;;3.90;;
57325;SDS011;43161;50.950;18.224;2023-08-21T14:03:04;9.10;;;3.60;;
57325;SDS011;43161;50.950;18.224;2023-08-21T14:05:30;7.70;;;3.70;;
57325;SDS011;43161;50.950;18.224;2023-08-21T14:07:57;8.40;;;3.70;;
57325;SDS011;43161;50.950;18.224;2023-08-21T14:10:23;8.80;;;4.20;;
57325;SDS011;43161;50.950;18.224;2023-08-21T14:12:49;8.00;;;3.50;;
57325;SDS011;43161;50.950;18.224;2023-08-21T14:15:16;9.20;;;3.60;;
57325;SDS011;43161;50.950;18.224;2023-08-21T14:17:43;9.50;;;3.90;;
57325;SDS011;43161;50.950;18.224;2023-08-21T14:20:10;8.70;;;3.50;;
57325;SDS011;43161;50.950;18.224;2023-08-21T14:22:37;9.10;;;3.80;;
57325;SDS011;43161;50.950;18.224;2023-08-21T14:25:03;8.00;;;3.70;;
57325;SDS011;43161;50.950;18.224;2023-08-21T14:27:33;8.10;;;3.60;;
57325;SDS011;43161;50.950;18.224;2023-08-21T14:29:59;8.30;;;3.60;;
57325;SDS011;43161;50.950;18.224;2023-08-21T14:32:24;9.20;;;3.60;;
57325;SDS011;43161;50.950;18.224;2023-08-21T14:34:51;7.70;;;3.20;;
57325;SDS011;43161;50.950;18.224;2023-08-21T14:37:20;9.20;;;3.40;;
57325;SDS011;43161;50.950;18.224;2023-08-21T14:39:46;9.30;;;3.50;;